Time;durP1;ratioP1;P1;durP2;ratioP2;P2;SDS_P1;SDS_P2;PMS_P1;PMS_P2;Temp;Humidity;BMP_temperature;BMP_pressure;BME280_temperature;BME280_humidity;BME280_pressure;Samples;Min_cycle;Max_cycle;Signal;HPM_P1;HPM_P2
2022/01/26 00:06:51;;;;;;;10.15;6.03;;;;;;;-6.14;68.14;61377.28;6050180;23;20249;-74
2022/01/26 00:09:18;;;;;;;8.98;6.03;;;;;;;-6.12;67.42;61384.28;6049273;23;20197;-74
2022/01/26 00:11:45;;;;;;;11.20;6.50;;;;;;;-6.24;68.36;61367.13;6049452;23;20415;-74
2022/01/26 00:14:13;;;;;;;12.93;6.82;;;;;;;-6.21;68.65;61367.19;6049813;23;20204;-75
2022/01/26 00:16:42;;;;;;;14.90;6.40;;;;;;;-6.21;68.84;61372.13;6049598;23;20181;-74
2022/01/26 00:19:17;;;;;;;11.70;6.63;;;;;;;-6.33;68.98;61362.38;6049536;23;20173;-74
2022/01/26 00:21:48;;;;;;;14.77;9.27;;;;;;;-6.31;68.87;61361.94;6048694;23;20547;-75
2022/01/26 00:27:20;;;;;;;10.48;6.60;;;;;;;-6.33;69.70;61359.91;6049298;23;20206;-74
2022/01/26 00:29:58;;;;;;;16.33;9.05;;;;;;;-6.45;69.91;61348.22;6050655;23;20193;-74
2022/01/26 00:40:43;;;;;;;8.25;4.68;;;;;;;-6.51;70.58;61341.59;6048753;23;20224;-74
2022/01/26 00:43:15;;;;;;;11.10;6.50;;;;;;;-6.45;70.56;61347.69;6048281;23;20184;-75
2022/01/26 00:45:42;;;;;;;8.00;5.55;;;;;;;-6.43;70.82;61347.78;6049093;23;20208;-75
2022/01/26 00:48:10;;;;;;;10.55;5.90;;;;;;;-6.49;70.48;61346.09;6049361;23;20177;-75
2022/01/26 00:50:40;;;;;;;11.77;5.15;;;;;;;-6.45;69.81;61345.22;6048685;23;20249;-75
2022/01/26 00:53:08;;;;;;;6.85;5.00;;;;;;;-6.56;70.16;61336.50;6048373;23;20354;-75
2022/01/26 00:55:35;;;;;;;10.57;5.57;;;;;;;-6.50;70.04;61345.06;6048081;23;20245;-75
2022/01/26 00:58:02;;;;;;;6.10;3.80;;;;;;;-6.58;70.03;61337.44;6048943;23;20213;-76
2022/01/26 01:00:30;;;;;;;12.57;6.47;;;;;;;-6.60;70.48;61334.91;6048928;23;20197;-75
2022/01/26 01:03:00;;;;;;;4.38;2.75;;;;;;;-6.68;70.00;61327.28;6048512;23;20178;-75
2022/01/26 01:05:33;;;;;;;10.80;6.32;;;;;;;-6.66;70.62;61324.34;6049123;23;20198;-73
2022/01/26 01:08:05;;;;;;;12.30;5.93;;;;;;;-6.67;71.33;61328.28;6048800;23;20403;-74
2022/01/26 01:10:32;;;;;;;8.45;5.07;;;;;;;-6.61;71.21;61331.41;6048580;23;20193;-75
2022/01/26 01:13:00;;;;;;;12.93;6.80;;;;;;;-6.51;71.16;61344.06;6048567;23;20281;-75
2022/01/26 01:15:28;;;;;;;12.60;7.43;;;;;;;-6.65;71.69;61325.38;6048862;23;20194;-74
2022/01/26 01:18:05;;;;;;;14.05;8.65;;;;;;;-6.77;72.24;61313.16;6048920;23;20176;-74
2022/01/26 01:20:50;;;;;;;21.10;9.90;;;;;;;-6.80;73.42;61312.06;6047729;23;20185;-75
2022/01/26 01:23:48;;;;;;;15.82;10.07;;;;;;;-6.63;74.30;61322.47;6049029;23;20215;-75
2022/01/26 01:26:38;;;;;;;25.15;11.10;;;;;;;-6.75;74.74;61320.16;6048265;23;20209;-74
2022/01/26 01:29:14;;;;;;;20.00;10.43;;;;;;;-6.56;74.56;61334.53;6048434;23;20185;-74
2022/01/26 01:31:45;;;;;;;18.20;9.98;;;;;;;-6.53;74.33;61337.59;6048609;23;20195;-75
2022/01/26 01:34:14;;;;;;;23.63;10.02;;;;;;;-6.73;75.96;61319.19;6048780;23;20240;-74
2022/01/26 01:36:44;;;;;;;28.33;10.95;;;;;;;-6.91;76.85;61303.84;6048830;23;20173;-75
2022/01/26 01:39:12;;;;;;;24.40;9.75;;;;;;;-6.95;77.65;61299.78;6047907;23;20178;-75
2022/01/26 01:41:40;;;;;;;21.73;10.45;;;;;;;-6.79;78.59;61310.59;6049479;23;20233;-74
2022/01/26 01:44:09;;;;;;;23.15;10.65;;;;;;;-6.61;77.03;61328.94;6049055;23;20184;-74
2022/01/26 01:46:37;;;;;;;23.42;10.93;;;;;;;-6.42;75.66;61348.78;6047822;23;20249;-75
2022/01/26 01:49:05;;;;;;;25.33;10.90;;;;;;;-6.36;74.40;61359.84;6048673;23;20174;-74
2022/01/26 01:51:36;;;;;;;19.02;10.30;;;;;;;-6.49;74.20;61346.59;6049189;23;20173;-75
2022/01/26 01:54:04;;;;;;;14.70;9.73;;;;;;;-6.71;76.25;61319.25;6051077;23;20166;-74
2022/01/26 01:56:32;;;;;;;22.52;10.90;;;;;;;-6.77;77.34;61317.59;6053114;23;20361;-75
2022/01/26 01:58:59;;;;;;;20.52;9.07;;;;;;;-6.76;79.00;61316.66;6053622;23;20265;-74
2022/01/26 02:01:27;;;;;;;19.40;9.60;;;;;;;-6.69;78.23;61326.25;6055825;23;20185;-74
2022/01/26 02:03:54;;;;;;;22.35;10.00;;;;;;;-6.59;77.05;61330.97;6056661;23;20229;-74
2022/01/26 02:06:22;;;;;;;19.95;10.52;;;;;;;-6.82;78.14;61310.03;6054506;23;20202;-73
2022/01/26 02:08:49;;;;;;;23.48;10.50;;;;;;;-6.73;77.92;61321.69;6051531;23;20177;-73
2022/01/26 02:11:16;;;;;;;19.83;8.63;;;;;;;-6.54;78.38;61336.56;6053444;23;20196;-74
2022/01/26 02:13:53;;;;;;;16.42;9.68;;;;;;;-6.46;77.99;61344.19;6050884;23;20177;-74
2022/01/26 02:16:26;;;;;;;21.17;9.40;;;;;;;-6.39;77.77;61359.28;6050480;23;20173;-75
2022/01/26 02:19:20;;;;;;;24.17;9.85;;;;;;;-6.34;77.85;61356.94;6049515;23;20177;-74
2022/01/26 02:49:47;;;;;;;15.13;8.38;;;;;;;-5.47;74.31;61445.00;6051658;23;20200;-75
2022/01/26 02:52:44;;;;;;;18.80;8.65;;;;;;;-5.72;74.02;61421.50;6050542;23;20280;-75
2022/01/26 02:55:34;;;;;;;17.38;8.75;;;;;;;-5.81;75.16;61405.41;6050670;23;20203;-74
2022/01/26 02:58:32;;;;;;;19.15;10.07;;;;;;;-5.67;74.57;61427.13;6050102;23;20431;-75
2022/01/26 03:01:23;;;;;;;21.77;8.95;;;;;;;-5.67;75.34;61429.09;6049687;23;20280;-74
2022/01/26 03:03:57;;;;;;;17.00;8.15;;;;;;;-5.73;76.51;61420.50;6050410;23;20178;-74
2022/01/26 03:06:32;;;;;;;22.98;10.00;;;;;;;-5.76;78.18;61417.94;6049917;23;20207;-75
2022/01/26 03:09:05;;;;;;;20.33;8.50;;;;;;;-5.52;77.60;61444.38;6049379;23;20165;-75
2022/01/26 03:11:36;;;;;;;19.85;9.02;;;;;;;-5.51;73.67;61440.94;6050293;23;20333;-74
2022/01/26 03:14:11;;;;;;;16.35;8.75;;;;;;;-5.47;74.04;61445.00;6050084;23;20213;-75
2022/01/26 03:16:43;;;;;;;17.98;9.68;;;;;;;-5.44;73.74;61445.09;6050270;23;20164;-74
2022/01/26 03:19:19;;;;;;;16.90;10.35;;;;;;;-5.47;74.84;61440.06;6050189;23;20184;-75
2022/01/26 03:21:55;;;;;;;18.45;10.38;;;;;;;-5.53;76.16;61438.41;6050471;23;20170;-75
2022/01/26 03:29:58;;;;;;;22.35;10.55;;;;;;;-5.40;76.81;61447.19;6022622;23;20207;-75
2022/01/26 03:35:15;;;;;;;22.05;11.57;;;;;;;-5.51;77.03;61445.41;6050717;23;20197;-75
2022/01/26 03:37:51;;;;;;;18.63;8.73;;;;;;;-5.46;74.66;61448.53;6049754;23;20169;-75
2022/01/26 03:40:18;;;;;;;15.55;8.68;;;;;;;-5.59;73.56;61437.75;6049601;23;20245;-75
2022/01/26 03:42:46;;;;;;;19.08;10.77;;;;;;;-5.72;74.74;61424.50;6049793;23;20379;-75
2022/01/26 03:45:13;;;;;;;19.00;9.88;;;;;;;-5.80;75.97;61415.84;6049418;23;20217;-75
2022/01/26 03:47:40;;;;;;;17.92;9.25;;;;;;;-5.77;76.50;61418.91;6050431;23;20249;-75
2022/01/26 03:50:07;;;;;;;15.25;8.85;;;;;;;-5.77;75.69;61416.94;6050115;23;20513;-74
2022/01/26 03:52:33;;;;;;;15.00;7.43;;;;;;;-5.72;73.91;61421.50;6049673;23;20177;-75
2022/01/26 03:55:00;;;;;;;8.55;5.22;;;;;;;-5.83;73.33;61408.34;6050117;23;20250;-74
2022/01/26 03:57:27;;;;;;;10.77;6.32;;;;;;;-5.74;74.42;61424.94;6050338;23;20217;-74
2022/01/26 03:59:55;;;;;;;20.70;9.63;;;;;;;-6.03;75.13;61388.00;6049692;23;20197;-74
2022/01/26 04:02:22;;;;;;;20.92;8.55;;;;;;;-5.99;75.95;61392.06;6048897;23;20169;-75
2022/01/26 04:04:55;;;;;;;25.85;10.18;;;;;;;-5.85;76.73;61410.78;6049589;23;20237;-75
2022/01/26 04:07:22;;;;;;;10.93;6.82;;;;;;;-5.89;75.21;61402.25;6049251;23;20229;-74
2022/01/26 04:09:49;;;;;;;6.95;5.93;;;;;;;-5.71;74.33;61425.03;6049942;23;20205;-74
2022/01/26 04:12:16;;;;;;;6.85;4.13;;;;;;;-5.45;72.24;61439.63;6049359;23;20506;-75
2022/01/26 04:14:48;;;;;;;10.20;3.85;;;;;;;-5.22;69.62;61477.44;6050231;23;20245;-75
2022/01/26 04:17:16;;;;;;;3.95;2.65;;;;;;;-5.05;69.57;61492.28;6050900;23;20224;-74
2022/01/26 04:19:45;;;;;;;2.55;2.17;;;;;;;-4.95;68.96;61500.50;6051370;23;20212;-76
2022/01/26 04:22:17;;;;;;;5.93;2.78;;;;;;;-4.79;67.28;61514.34;6052010;23;20177;-74
2022/01/26 04:24:47;;;;;;;6.28;4.18;;;;;;;-4.69;66.13;61524.03;6051401;23;20204;-74
2022/01/26 04:27:20;;;;;;;9.55;3.53;;;;;;;-4.52;63.97;61541.38;6051849;23;20211;-74
2022/01/26 04:29:49;;;;;;;3.45;2.33;;;;;;;-4.39;63.32;61559.59;6051607;23;20525;-74
2022/01/26 04:32:17;;;;;;;5.78;3.47;;;;;;;-4.39;61.18;61559.09;6051347;23;20186;-73
2022/01/26 04:34:46;;;;;;;8.18;3.70;;;;;;;-4.33;59.65;61552.81;6051482;23;20197;-73
2022/01/26 04:37:23;;;;;;;4.75;3.13;;;;;;;-4.17;57.97;61582.06;6051210;23;20200;-74
2022/01/26 04:39:55;;;;;;;6.13;3.42;;;;;;;-4.04;57.72;61595.31;6049267;23;20213;-75
2022/01/26 04:42:37;;;;;;;4.10;3.15;;;;;;;-4.10;57.42;61589.19;6049336;23;20530;-76
2022/01/26 04:45:08;;;;;;;6.03;3.25;;;;;;;-3.98;56.66;61596.47;6049619;23;20204;-74
2022/01/26 04:47:37;;;;;;;5.68;3.65;;;;;;;-4.02;57.08;61592.38;6048946;23;20199;-75
2022/01/26 04:50:05;;;;;;;7.43;4.55;;;;;;;-3.92;56.43;61594.63;6049818;23;20197;-75
2022/01/26 04:52:32;;;;;;;5.07;2.63;;;;;;;-3.92;55.73;61609.56;6051936;23;20189;-75
2022/01/26 04:54:59;;;;;;;4.55;3.25;;;;;;;-3.79;55.81;61618.38;6053151;23;20201;-74
2022/01/26 04:57:26;;;;;;;3.40;2.80;;;;;;;-3.77;55.27;61615.44;6054103;23;20182;-75
2022/01/26 04:59:53;;;;;;;5.30;4.03;;;;;;;-3.79;56.58;61620.84;6060301;23;20428;-75
2022/01/26 05:02:19;;;;;;;3.55;3.30;;;;;;;-3.93;57.07;61606.56;6057628;23;20360;-76
2022/01/26 05:04:48;;;;;;;5.13;3.85;;;;;;;-3.93;57.17;61601.59;6052987;23;20194;-76
2022/01/26 05:07:15;;;;;;;9.88;4.57;;;;;;;-3.91;57.83;61603.09;6049595;23;20189;-75
2022/01/26 05:09:41;;;;;;;5.68;4.28;;;;;;;-4.20;60.23;61566.06;6048970;23;20203;-76
2022/01/26 05:12:09;;;;;;;6.97;4.97;;;;;;;-4.14;60.01;61577.16;6049111;23;20174;-75
2022/01/26 05:14:38;;;;;;;2.75;2.22;;;;;;;-4.18;60.76;61568.09;6048381;23;20193;-74
2022/01/26 05:17:05;;;;;;;11.75;4.32;;;;;;;-4.46;62.10;61547.50;6047734;23;20542;-74
2022/01/26 05:19:32;;;;;;;6.57;4.53;;;;;;;-4.40;64.38;61561.06;6047415;23;20197;-75
2022/01/26 05:22:00;;;;;;;3.33;3.00;;;;;;;-4.48;64.52;61542.47;6048186;23;20470;-75
2022/01/26 05:24:27;;;;;;;7.38;3.97;;;;;;;-4.49;64.76;61549.41;6048693;23;20232;-73
2022/01/26 05:26:54;;;;;;;9.43;5.13;;;;;;;-4.27;65.73;61561.41;6048901;23;20178;-74
2022/01/26 05:29:21;;;;;;;6.05;4.13;;;;;;;-4.34;66.24;61562.22;6049809;23;20197;-73
2022/01/26 05:31:48;;;;;;;7.15;4.53;;;;;;;-4.15;66.30;61581.09;6048189;23;20405;-74
2022/01/26 05:34:15;;;;;;;5.45;4.53;;;;;;;-4.09;65.88;61582.75;6049568;23;20198;-74
2022/01/26 05:36:43;;;;;;;8.00;4.90;;;;;;;-4.15;67.62;61579.13;6050363;23;20418;-75
2022/01/26 05:39:11;;;;;;;12.75;5.68;;;;;;;-4.18;68.30;61578.56;6051058;23;20373;-75
2022/01/26 05:41:39;;;;;;;8.35;4.32;;;;;;;-4.06;69.30;61595.25;6050721;23;20188;-75
2022/01/26 05:44:07;;;;;;;7.20;5.53;;;;;;;-4.26;70.40;61574.84;6050190;23;20232;-75
2022/01/26 05:46:38;;;;;;;8.50;4.57;;;;;;;-4.24;72.46;61564.97;6050450;23;20250;-74
2022/01/26 05:49:05;;;;;;;9.07;3.92;;;;;;;-4.21;74.40;61577.97;6049105;23;20378;-75
2022/01/26 05:51:33;;;;;;;8.02;4.85;;;;;;;-4.07;75.10;61591.75;6049921;23;20210;-75
2022/01/26 05:54:01;;;;;;;7.15;4.78;;;;;;;-4.00;76.05;61599.41;6049710;23;20380;-76
2022/01/26 05:56:29;;;;;;;14.32;4.70;;;;;;;-3.90;77.18;61609.13;6048261;23;20165;-75
2022/01/26 05:58:56;;;;;;;5.07;4.18;;;;;;;-4.09;78.20;61587.22;6049876;23;20409;-76
2022/01/26 06:01:23;;;;;;;8.27;4.20;;;;;;;-3.87;79.30;61607.19;6051627;23;20238;-75
2022/01/26 06:03:50;;;;;;;7.15;4.60;;;;;;;-4.12;80.21;61586.63;6055809;23;20174;-75
2022/01/26 06:06:17;;;;;;;6.47;4.60;;;;;;;-4.05;80.52;61588.81;6051009;23;20184;-75
2022/01/26 06:08:44;;;;;;;7.90;5.47;;;;;;;-4.06;81.67;61580.34;6051088;23;20229;-75
2022/01/26 06:11:28;;;;;;;10.73;5.45;;;;;;;-3.93;82.55;61601.06;6051710;23;20238;-75
2022/01/26 06:13:57;;;;;;;10.75;5.90;;;;;;;-4.08;83.38;61593.72;6055751;23;20530;-75
2022/01/26 06:19:12;;;;;;;8.57;6.13;;;;;;;-4.09;86.54;61587.22;6076102;23;20502;-76
2022/01/26 06:21:39;;;;;;;8.13;5.78;;;;;;;-3.92;86.38;61607.56;6080381;23;20183;-77
2022/01/26 06:24:07;;;;;;;6.20;5.30;;;;;;;-3.93;87.31;61606.56;6081777;23;20225;-75
2022/01/26 06:26:40;;;;;;;10.90;6.22;;;;;;;-3.82;86.57;61617.28;6090286;23;20173;-76
2022/01/26 06:29:15;;;;;;;13.93;6.32;;;;;;;-3.74;86.44;61618.50;6093121;23;20224;-76
2022/01/26 06:31:43;;;;;;;10.15;5.75;;;;;;;-3.99;89.76;61599.91;6083059;23;20398;-75
2022/01/26 06:34:12;;;;;;;8.98;5.72;;;;;;;-4.00;92.24;61591.94;6082635;23;20235;-75
2022/01/26 06:36:42;;;;;;;9.43;5.47;;;;;;;-4.16;93.46;61582.56;6080538;23;20177;-76
2022/01/26 06:39:10;;;;;;;14.45;6.90;;;;;;;-3.99;94.14;61592.47;6079655;23;20169;-76
2022/01/26 06:41:37;;;;;;;9.93;5.97;;;;;;;-3.78;95.32;61621.84;6080441;23;20186;-75
2022/01/26 06:44:14;;;;;;;13.65;7.47;;;;;;;-3.65;96.69;61635.16;6079409;23;20179;-75
2022/01/26 06:46:52;;;;;;;17.13;7.45;;;;;;;-3.54;96.85;61638.41;6077758;23;20173;-76
2022/01/26 06:49:31;;;;;;;7.50;5.28;;;;;;;-3.61;97.98;61631.75;6077877;23;20232;-75
2022/01/26 06:51:59;;;;;;;10.63;5.75;;;;;;;-3.60;100.00;61634.75;6078624;23;20177;-75
2022/01/26 06:54:27;;;;;;;11.38;6.65;;;;;;;-3.48;100.00;61644.00;6079029;23;20208;-75
2022/01/26 06:56:54;;;;;;;10.43;6.97;;;;;;;-3.56;100.00;61644.34;6078758;23;20177;-74
2022/01/26 06:59:21;;;;;;;9.10;4.63;;;;;;;-3.44;100.00;61645.59;6079308;23;20192;-74
2022/01/26 07:01:52;;;;;;;13.07;7.95;;;;;;;-3.49;100.00;61643.50;6081629;23;20189;-73
2022/01/26 07:04:19;;;;;;;16.85;10.27;;;;;;;-3.45;100.00;61650.06;6082284;23;20203;-73
2022/01/26 07:06:47;;;;;;;18.67;8.75;;;;;;;-3.38;100.00;61659.22;6080181;23;20173;-73
2022/01/26 07:09:16;;;;;;;17.88;8.07;;;;;;;-3.23;100.00;61667.06;6082703;23;20209;-72
2022/01/26 07:11:43;;;;;;;17.77;9.65;;;;;;;-3.55;100.00;61642.88;6078338;23;20224;-73
2022/01/26 07:14:11;;;;;;;13.65;7.75;;;;;;;-3.35;100.00;61660.28;6081753;23;20176;-78
2022/01/26 07:22:08;;;;;;;9.88;7.32;;;;;;;-3.09;100.00;61686.34;6082925;23;20192;-76
2022/01/26 07:24:36;;;;;;;8.65;5.28;;;;;;;-3.04;100.00;61696.44;6082737;23;20197;-76
2022/01/26 07:27:03;;;;;;;11.57;7.88;;;;;;;-3.03;100.00;61692.47;6082189;23;20278;-75
2022/01/26 07:29:31;;;;;;;9.57;6.00;;;;;;;-2.96;100.00;61692.16;6083863;23;20207;-76
2022/01/26 07:31:59;;;;;;;11.32;7.10;;;;;;;-3.04;100.00;61689.47;6082084;23;20201;-76
2022/01/26 07:34:28;;;;;;;13.50;7.88;;;;;;;-2.92;100.00;61704.22;6082891;23;20197;-76
2022/01/26 07:37:00;;;;;;;11.57;6.85;;;;;;;-2.92;100.00;61703.72;6082383;23;20173;-75
2022/01/26 07:39:41;;;;;;;13.05;6.88;;;;;;;-2.86;100.00;61707.34;6083150;23;20196;-78
2022/01/26 07:42:09;;;;;;;13.65;7.85;;;;;;;-2.88;100.00;61708.31;6082409;23;20474;-76
2022/01/26 07:44:36;;;;;;;12.88;7.70;;;;;;;-2.78;100.00;61718.50;6081664;23;20232;-75
2022/01/26 07:47:04;;;;;;;17.58;7.57;;;;;;;-2.77;100.00;61719.03;6082338;23;20229;-75
2022/01/26 07:49:32;;;;;;;13.52;8.40;;;;;;;-2.86;100.00;61710.34;6086332;23;20237;-75
2022/01/26 07:51:59;;;;;;;13.73;7.25;;;;;;;-2.87;100.00;61706.84;6086689;23;20175;-75
2022/01/26 07:54:26;;;;;;;8.30;5.63;;;;;;;-3.03;100.00;61697.97;6083413;23;20449;-75
2022/01/26 07:56:53;;;;;;;7.20;5.95;;;;;;;-2.98;100.00;61697.56;6084647;23;20232;-74
2022/01/26 07:59:20;;;;;;;9.25;5.55;;;;;;;-3.09;100.00;61686.34;6084612;23;20530;-75
2022/01/26 08:01:47;;;;;;;11.25;5.88;;;;;;;-2.99;100.00;61697.06;6083778;23;20173;-74
2022/01/26 08:04:14;;;;;;;10.43;6.55;;;;;;;-2.91;100.00;61707.22;6081635;23;20200;-74
2022/01/26 08:06:44;;;;;;;8.60;5.07;;;;;;;-2.95;100.00;61695.66;6079652;23;20232;-73
2022/01/26 08:09:11;;;;;;;8.25;5.68;;;;;;;-3.08;100.00;61690.34;6076024;23;20212;-74
2022/01/26 08:11:38;;;;;;;8.32;4.45;;;;;;;-3.12;100.00;61681.28;6077978;23;20193;-74
2022/01/26 08:14:05;;;;;;;9.30;6.25;;;;;;;-2.95;100.00;61698.66;6078928;23;20177;-74
2022/01/26 08:16:32;;;;;;;8.73;5.15;;;;;;;-2.84;100.00;61717.38;6078318;23;20176;-75
2022/01/26 08:18:59;;;;;;;9.57;5.55;;;;;;;-2.90;100.00;61701.28;6077642;23;20181;-75
2022/01/26 08:21:25;;;;;;;13.27;7.03;;;;;;;-3.00;100.00;61698.03;6078138;23;20173;-74
2022/01/26 08:24:02;;;;;;;8.75;6.05;;;;;;;-2.96;100.00;61697.63;6078562;23;20224;-75
2022/01/26 08:26:38;;;;;;;14.23;7.53;;;;;;;-2.82;100.00;61709.47;6086940;23;20165;-75
2022/01/26 08:29:11;;;;;;;11.30;5.88;;;;;;;-2.80;100.00;61718.97;6078877;23;20210;-74
2022/01/26 08:31:38;;;;;;;9.85;5.78;;;;;;;-2.74;100.00;61719.59;6078148;23;20169;-74
2022/01/26 08:34:05;;;;;;;5.13;4.43;;;;;;;-2.76;100.00;61720.06;6078001;23;20206;-74
2022/01/26 08:36:31;;;;;;;5.22;4.75;;;;;;;-2.66;100.00;61725.78;6081721;23;20172;-74
2022/01/26 08:39:00;;;;;;;11.40;6.93;;;;;;;-2.61;100.00;61737.88;6080064;23;20173;-73
2022/01/26 08:41:27;;;;;;;7.03;4.43;;;;;;;-2.63;100.00;61733.34;6079519;23;20224;-74
2022/01/26 08:43:54;;;;;;;9.65;5.88;;;;;;;-2.47;100.00;61750.19;6079211;23;20196;-74
2022/01/26 08:46:22;;;;;;;7.38;4.65;;;;;;;-2.36;100.00;61755.94;6079726;23;20176;-74
2022/01/26 08:48:50;;;;;;;6.28;5.47;;;;;;;-2.26;100.00;61768.66;6086391;23;20245;-74
2022/01/26 08:51:18;;;;;;;8.70;5.10;;;;;;;-2.26;100.00;61776.13;6087888;23;20172;-74
2022/01/26 08:53:45;;;;;;;5.30;4.60;;;;;;;-2.15;100.00;61779.91;6087783;23;20179;-74
2022/01/26 08:56:14;;;;;;;7.82;5.65;;;;;;;-2.06;100.00;61784.13;6086058;23;20758;-74
2022/01/26 08:58:40;;;;;;;7.10;5.03;;;;;;;-1.85;100.00;61810.59;6085414;23;20172;-74
2022/01/26 09:01:07;;;;;;;12.27;6.53;;;;;;;-1.79;100.00;61818.72;6084962;23;20196;-75
2022/01/26 09:03:39;;;;;;;7.07;4.90;;;;;;;-1.82;100.00;61813.16;6085183;23;20365;-74
2022/01/26 09:06:06;;;;;;;7.95;4.70;;;;;;;-1.69;100.00;61826.47;6085349;23;20196;-75
2022/01/26 09:08:34;;;;;;;10.05;5.63;;;;;;;-1.71;100.00;61821.91;6086676;23;20364;-75
2022/01/26 09:11:02;;;;;;;11.07;6.38;;;;;;;-1.57;100.00;61836.25;6087147;23;20251;-74
2022/01/26 09:13:32;;;;;;;18.55;8.43;;;;;;;-1.44;99.19;61852.03;6081409;23;20172;-74
2022/01/26 09:16:02;;;;;;;20.35;9.25;;;;;;;-1.43;99.12;61855.53;6081284;23;20193;-74
2022/01/26 09:18:37;;;;;;;7.63;5.47;;;;;;;-1.55;99.14;61841.28;6082374;23;20195;-74
2022/01/26 09:21:05;;;;;;;10.70;5.70;;;;;;;-1.53;99.73;61845.31;6081954;23;20426;-74
2022/01/26 09:23:33;;;;;;;6.78;4.78;;;;;;;-1.52;99.56;61846.34;6083203;23;20407;-75
2022/01/26 09:26:00;;;;;;;4.90;4.43;;;;;;;-1.83;99.72;61815.13;6080950;23;20188;-74
2022/01/26 09:28:27;;;;;;;12.50;5.63;;;;;;;-1.75;100.00;61820.84;6080708;23;20232;-75
2022/01/26 09:30:55;;;;;;;7.40;4.28;;;;;;;-1.86;100.00;61812.06;6082799;23;20193;-74
2022/01/26 09:33:23;;;;;;;12.45;6.32;;;;;;;-1.80;100.00;61815.19;6087640;23;20224;-74
2022/01/26 09:35:50;;;;;;;5.88;3.80;;;;;;;-1.77;100.00;61816.28;6084536;23;20204;-74
2022/01/26 09:38:17;;;;;;;9.10;5.35;;;;;;;-1.84;100.00;61813.59;6083416;23;20185;-73
2022/01/26 09:40:44;;;;;;;8.90;6.07;;;;;;;-1.75;100.00;61825.81;6082341;23;20200;-75
2022/01/26 09:43:30;;;;;;;8.60;5.68;;;;;;;-1.75;100.00;61825.31;6082617;23;20169;-75
2022/01/26 09:45:58;;;;;;;7.47;5.68;;;;;;;-1.40;100.00;61856.13;6082110;23;20197;-76
2022/01/26 09:48:25;;;;;;;5.72;5.20;;;;;;;-1.35;99.62;61864.25;6082439;23;20208;-76
2022/01/26 09:50:54;;;;;;;10.95;6.22;;;;;;;-1.31;99.09;61868.34;6081311;23;20200;-75
2022/01/26 09:53:27;;;;;;;9.10;6.43;;;;;;;-1.41;99.10;61855.63;6080793;23;20176;-74
2022/01/26 09:55:54;;;;;;;7.63;5.50;;;;;;;-1.23;98.16;61876.03;6080436;23;20192;-75
2022/01/26 09:58:22;;;;;;;10.38;6.22;;;;;;;-1.13;98.18;61883.75;6077084;23;20492;-76
2022/01/26 10:00:59;;;;;;;10.50;5.55;;;;;;;-1.04;97.04;61892.47;6078375;23;20254;-74
2022/01/26 10:03:31;;;;;;;6.90;4.63;;;;;;;-0.89;97.23;61907.81;6080729;23;20183;-74
2022/01/26 10:05:58;;;;;;;7.55;5.35;;;;;;;-0.86;97.05;61915.88;6080090;23;20197;-74
2022/01/26 10:08:56;;;;;;;5.18;4.63;;;;;;;-0.77;96.40;61917.59;6081052;23;20203;-74
2022/01/26 10:19:56;;;;;;;13.57;8.65;;;;;;;-0.86;97.26;61913.88;6051114;23;20203;-74
2022/01/26 10:22:27;;;;;;;5.22;4.60;;;;;;;-0.67;96.95;61933.34;6080638;23;20287;-74
2022/01/26 10:25:04;;;;;;;11.43;4.63;;;;;;;-0.72;96.70;61925.72;6080834;23;20204;-73
2022/01/26 10:27:37;;;;;;;6.97;5.07;;;;;;;-0.58;96.05;61942.56;6081444;23;20193;-74
2022/01/26 10:30:06;;;;;;;6.95;4.70;;;;;;;-0.60;96.31;61940.00;6082773;23;20208;-72
2022/01/26 10:32:45;;;;;;;5.95;5.07;;;;;;;-0.94;98.42;61905.72;6081090;23;20188;-74
2022/01/26 10:35:14;;;;;;;8.20;6.60;;;;;;;-0.74;97.82;61923.69;6085538;23;20196;-74
2022/01/26 10:37:48;;;;;;;6.60;4.93;;;;;;;-0.82;97.58;61912.47;6090097;23;20173;-74
2022/01/26 10:40:19;;;;;;;8.10;4.90;;;;;;;-0.62;98.27;61932.97;6088993;23;20264;-75
2022/01/26 10:42:58;;;;;;;5.78;5.13;;;;;;;-0.91;98.91;61906.28;6086911;23;20172;-74
2022/01/26 10:45:48;;;;;;;7.70;5.47;;;;;;;-0.92;99.53;61910.25;6093651;23;20213;-75
2022/01/26 10:48:25;;;;;;;7.50;5.20;;;;;;;-0.86;99.54;61913.88;6087817;23;20353;-75
2022/01/26 10:53:43;;;;;;;5.20;4.05;;;;;;;-0.97;100.00;61902.13;6070600;23;20239;-75
2022/01/26 10:56:10;;;;;;;6.72;5.07;;;;;;;-1.20;100.00;61879.09;6089082;23;20199;-75
2022/01/26 10:58:39;;;;;;;8.73;5.15;;;;;;;-1.00;100.00;61894.56;6089880;23;20197;-78
2022/01/26 11:01:07;;;;;;;9.93;6.35;;;;;;;-0.88;100.00;61909.34;6088442;23;20197;-77
2022/01/26 11:03:36;;;;;;;8.40;5.75;;;;;;;-0.88;100.00;61909.34;6086556;23;20173;-75
2022/01/26 11:06:04;;;;;;;6.35;5.40;;;;;;;-0.99;100.00;61893.09;6087521;23;20249;-76
2022/01/26 11:08:36;;;;;;;6.90;5.20;;;;;;;-1.06;100.00;61893.41;6087445;23;20172;-75
2022/01/26 11:11:03;;;;;;;9.68;6.88;;;;;;;-1.00;100.00;61899.06;6086176;23;20197;-75
2022/01/26 11:13:39;;;;;;;12.93;7.40;;;;;;;-1.08;100.00;61895.84;6086696;23;20172;-77
2022/01/26 11:16:10;;;;;;;11.70;6.63;;;;;;;-1.01;100.00;61898.53;6085639;23;20189;-75
2022/01/26 11:18:51;;;;;;;6.57;5.13;;;;;;;-1.07;100.00;61889.88;6087827;23;20213;-75
2022/01/26 11:21:30;;;;;;;6.18;5.55;;;;;;;-0.93;100.00;61909.22;6086891;23;20196;-75
2022/01/26 11:24:09;;;;;;;10.63;6.03;;;;;;;-0.98;100.00;61899.09;6080280;23;20200;-75
2022/01/26 11:26:38;;;;;;;7.10;5.32;;;;;;;-1.00;100.00;61894.56;6082698;23;20186;-75
2022/01/26 11:29:33;;;;;;;6.88;5.22;;;;;;;-1.01;100.00;61895.53;6086889;23;20261;-75
2022/01/26 11:32:07;;;;;;;9.57;5.80;;;;;;;-0.86;100.00;61913.38;6063144;23;20180;-76
2022/01/26 11:34:36;;;;;;;11.80;6.25;;;;;;;-0.77;100.00;61915.09;6090196;23;20192;-75
2022/01/26 11:37:05;;;;;;;7.93;5.53;;;;;;;-0.78;100.00;61917.09;6088367;23;20224;-73
2022/01/26 11:45:03;;;;;;;7.72;5.15;;;;;;;-0.69;100.00;61925.81;6085854;23;20180;-75
2022/01/26 11:45:23;;;;;;;13.02;6.63;;;;;;;-0.81;100.00;61916.00;6084654;23;20200;-74
2022/01/26 11:48:01;;;;;;;9.00;4.88;;;;;;;-0.76;100.00;61921.13;6081010;23;20284;-75
2022/01/26 11:51:02;;;;;;;8.40;5.13;;;;;;;-1.04;100.00;61895.47;6080299;23;20408;-74
2022/01/26 11:53:31;;;;;;;8.88;5.88;;;;;;;-0.70;100.00;61930.28;6083822;23;20172;-74
2022/01/26 11:56:05;;;;;;;8.07;5.03;;;;;;;-0.63;100.00;61939.44;6079482;23;20189;-75
2022/01/26 11:58:35;;;;;;;7.05;5.47;;;;;;;-0.59;100.00;61941.03;6079508;23;20172;-74
2022/01/26 12:01:14;;;;;;;8.15;5.88;;;;;;;-0.60;100.00;61943.03;6081154;23;20239;-76
2022/01/26 12:03:47;;;;;;;6.55;5.75;;;;;;;-0.55;100.00;61945.63;6088690;23;20176;-75
2022/01/26 12:06:27;;;;;;;9.60;5.40;;;;;;;-0.51;100.00;61954.22;6078976;23;20196;-74
2022/01/26 12:08:57;;;;;;;8.18;6.05;;;;;;;-0.53;100.00;61942.69;6079593;23;20204;-75
2022/01/26 12:11:24;;;;;;;5.88;4.72;;;;;;;-0.54;100.00;61943.66;6077481;23;20179;-75
2022/01/26 12:13:59;;;;;;;6.78;5.82;;;;;;;-0.66;100.00;61931.88;6078882;23;20180;-75
2022/01/26 12:16:34;;;;;;;9.20;7.07;;;;;;;-0.78;100.00;61919.59;6078273;23;20168;-75
2022/01/26 12:19:13;;;;;;;9.50;6.32;;;;;;;-0.69;100.00;61928.78;6078536;23;20354;-75
2022/01/26 12:35:48;;;;;;;8.48;5.35;;;;;;;-0.97;100.00;61897.66;6064323;23;20200;-74
2022/01/26 12:38:25;;;;;;;10.35;5.22;;;;;;;-1.17;100.00;61882.16;6079433;23;20229;-75
2022/01/26 12:43:42;;;;;;;5.97;4.57;;;;;;;-1.00;100.00;61894.06;6084107;23;20365;-76
2022/01/26 12:46:12;;;;;;;7.72;5.32;;;;;;;-1.00;100.00;61897.06;6081995;23;20229;-75
2022/01/26 12:48:40;;;;;;;6.20;5.60;;;;;;;-1.03;100.00;61894.00;6080338;23;20232;-75
2022/01/26 12:51:08;;;;;;;5.30;4.72;;;;;;;-0.95;100.00;61901.69;6080344;23;20196;-74
2022/01/26 12:53:40;;;;;;;5.05;4.38;;;;;;;-0.83;100.00;61916.97;6080147;23;20342;-76
2022/01/26 12:56:08;;;;;;;8.05;5.78;;;;;;;-1.03;100.00;61891.50;6081010;23;20192;-75
2022/01/26 12:58:37;;;;;;;7.43;5.53;;;;;;;-0.95;100.00;61899.69;6079218;23;20177;-75
2022/01/26 13:01:07;;;;;;;5.28;4.60;;;;;;;-0.90;100.00;61909.28;6081193;23;20209;-74
2022/01/26 13:03:35;;;;;;;8.00;5.45;;;;;;;-0.69;100.00;61936.28;6082044;23;20180;-76
2022/01/26 13:06:11;;;;;;;12.27;5.63;;;;;;;-0.76;100.00;61918.63;6089161;23;20197;-75
2022/01/26 13:08:48;;;;;;;11.20;5.97;;;;;;;-0.74;100.00;61926.19;6080574;23;20176;-74
2022/01/26 13:11:23;;;;;;;6.00;4.05;;;;;;;-0.76;100.00;61921.13;6080076;23;20424;-75
2022/01/26 13:13:50;;;;;;;11.55;5.32;;;;;;;-0.87;100.00;61909.84;6080906;23;20179;-75
2022/01/26 13:16:25;;;;;;;5.57;4.72;;;;;;;-0.73;100.00;61927.22;6082369;23;20199;-75